Terminal Aerodrome Forecast
Issued by NWS

Home | Current Version | Previous Version | Text Only | Print | Product List | Glossary On
Versions: 1 2 3 4 5 6 7 8 9 10 11 12 13 14 15
000
FTUS41 KLWX 301807 AAA
TAFMTN
TAF AMD
KMTN 301807Z 3018/3118 16010KT P6SM VCTS SCT030 BKN080CB
      TEMPO 3018/3020 27015G25KT 3/4SM TSRA BKN040CB
     FM302300 VRB05KT P6SM SCT060
     FM310600 32008KT P6SM FEW250=

USA.gov is the U.S. government's official web portal to all federal, state and local government web resources and services.